createdAt,value
2017-08-12T00:01:09.798Z,15.60
2017-08-12T00:03:37.420Z,15.60
2017-08-12T00:06:04.336Z,15.60
2017-08-12T00:08:31.283Z,15.60
2017-08-12T00:10:58.151Z,15.70
2017-08-12T00:13:25.005Z,15.60
2017-08-12T00:15:51.917Z,15.60
2017-08-12T00:18:18.857Z,15.50
2017-08-12T00:20:45.712Z,15.50
2017-08-12T00:23:12.563Z,15.60
2017-08-12T00:25:39.488Z,15.60
2017-08-12T00:28:06.337Z,15.70
2017-08-12T00:30:33.187Z,15.70
2017-08-12T00:33:00.112Z,15.70
2017-08-12T00:35:26.959Z,15.60
2017-08-12T00:37:53.887Z,15.80
2017-08-12T00:40:21.593Z,15.80
2017-08-12T00:42:48.465Z,15.80
2017-08-12T00:45:15.803Z,15.80
2017-08-12T00:47:42.786Z,15.70
2017-08-12T00:50:09.684Z,15.80
2017-08-12T00:52:36.633Z,15.80
2017-08-12T00:55:03.513Z,15.80
2017-08-12T00:57:30.477Z,15.80
2017-08-12T00:59:57.358Z,15.80
2017-08-12T01:02:24.223Z,15.80
2017-08-12T01:04:51.155Z,15.70
2017-08-12T01:07:18.071Z,15.80
2017-08-12T01:09:44.978Z,15.70
2017-08-12T01:12:11.822Z,15.70
2017-08-12T01:14:38.735Z,15.70
2017-08-12T01:17:05.577Z,15.80
2017-08-12T01:19:32.482Z,15.80
2017-08-12T01:22:00.142Z,15.80
2017-08-12T01:24:27.728Z,15.80
2017-08-12T01:26:54.643Z,15.80
2017-08-12T01:29:21.496Z,15.80
2017-08-12T01:31:49.168Z,15.80
2017-08-12T01:34:16.824Z,15.80
2017-08-12T01:36:44.482Z,15.70
2017-08-12T01:39:12.143Z,15.70
2017-08-12T01:41:39.734Z,15.70
2017-08-12T01:44:06.668Z,15.70
2017-08-12T01:46:34.250Z,15.70
2017-08-12T01:49:01.116Z,15.70
2017-08-12T01:51:28.022Z,15.70
2017-08-12T01:53:54.901Z,15.70
2017-08-12T01:56:21.819Z,15.60
2017-08-12T01:58:48.787Z,15.60
2017-08-12T02:01:15.676Z,15.60
2017-08-12T02:03:42.522Z,15.60
2017-08-12T02:06:09.503Z,15.60
2017-08-12T02:08:36.383Z,15.60
2017-08-12T02:11:03.321Z,15.60
2017-08-12T02:13:30.164Z,15.60
2017-08-12T02:15:57.076Z,15.60
2017-08-12T02:18:23.980Z,15.60
2017-08-12T02:20:50.817Z,15.70
2017-08-12T02:23:17.735Z,15.60
2017-08-12T02:25:44.601Z,15.60
2017-08-12T02:28:11.586Z,15.60
2017-08-12T02:30:39.253Z,15.70
2017-08-12T02:33:06.855Z,15.70
2017-08-12T02:35:33.770Z,15.70
2017-08-12T02:38:00.651Z,15.70
2017-08-12T02:40:27.572Z,15.80
2017-08-12T02:42:54.507Z,15.80
2017-08-12T02:45:22.100Z,15.80
2017-08-12T02:47:49.035Z,15.70
2017-08-12T02:50:15.968Z,15.70
2017-08-12T02:52:42.820Z,15.70
2017-08-12T02:55:09.759Z,15.70
2017-08-12T02:57:36.615Z,15.70
2017-08-12T03:00:03.666Z,15.70
2017-08-12T03:02:30.511Z,15.70
2017-08-12T03:04:57.370Z,15.60
2017-08-12T03:07:24.305Z,15.60
2017-08-12T03:09:51.280Z,15.60
2017-08-12T03:12:18.139Z,15.50
2017-08-12T03:14:45.088Z,15.50
2017-08-12T03:17:11.941Z,15.50
2017-08-12T03:19:39.536Z,15.40
2017-08-12T03:22:06.461Z,15.40
2017-08-12T03:24:34.039Z,15.40
2017-08-12T03:27:00.945Z,15.30
2017-08-12T03:29:27.790Z,15.40
2017-08-12T03:31:54.715Z,15.40
2017-08-12T03:34:21.558Z,15.40
2017-08-12T03:36:48.477Z,15.40
2017-08-12T03:39:15.315Z,15.40
2017-08-12T03:41:42.243Z,15.40
2017-08-12T03:44:09.104Z,15.40
2017-08-12T03:46:36.040Z,15.30
2017-08-12T03:49:02.867Z,15.30
2017-08-12T03:51:30.495Z,15.30
2017-08-12T03:53:57.409Z,15.30
2017-08-12T03:56:24.358Z,15.30
2017-08-12T03:58:51.279Z,15.10
2017-08-12T04:01:18.132Z,15.30
2017-08-12T04:03:45.047Z,15.30
2017-08-12T04:06:11.897Z,15.10
2017-08-12T04:08:38.807Z,14.90
2017-08-12T04:11:05.648Z,15.10
2017-08-12T04:13:32.512Z,15.00
2017-08-12T04:15:59.440Z,14.90
2017-08-12T04:18:26.370Z,14.80
2017-08-12T04:20:53.295Z,14.80
2017-08-12T04:23:20.148Z,14.80
2017-08-12T04:25:47.312Z,14.80
2017-08-12T04:28:14.252Z,14.90
2017-08-12T04:30:41.112Z,14.90
2017-08-12T04:33:08.064Z,14.90
2017-08-12T04:35:34.916Z,15.00
2017-08-12T04:38:01.782Z,14.90
2017-08-12T04:40:28.710Z,14.90
2017-08-12T04:42:55.568Z,14.90
2017-08-12T04:45:22.432Z,14.90
2017-08-12T04:47:49.416Z,14.90
2017-08-12T04:50:16.265Z,15.00
2017-08-12T04:52:43.184Z,15.00
2017-08-12T04:55:10.128Z,15.00
2017-08-12T04:57:36.952Z,14.90
2017-08-12T05:00:03.872Z,14.90
2017-08-12T05:02:30.830Z,14.90
2017-08-12T05:04:57.690Z,15.00
2017-08-12T05:07:24.548Z,15.00
2017-08-12T05:09:51.471Z,15.10
2017-08-12T05:12:18.341Z,15.10
2017-08-12T05:14:45.215Z,15.20
2017-08-12T05:17:12.139Z,15.20
2017-08-12T05:19:39.020Z,15.20
2017-08-12T05:22:05.879Z,15.20
2017-08-12T05:24:32.810Z,15.10
2017-08-12T05:26:59.670Z,15.20
2017-08-12T05:29:26.580Z,15.20
2017-08-12T05:31:53.428Z,15.20
2017-08-12T05:34:20.372Z,15.20
2017-08-12T05:36:47.251Z,15.30
2017-08-12T05:39:14.204Z,15.30
2017-08-12T05:41:41.090Z,15.40
2017-08-12T05:44:07.947Z,15.40
2017-08-12T05:46:34.881Z,15.40
2017-08-12T05:49:01.767Z,15.40
2017-08-12T05:51:28.629Z,15.40
2017-08-12T05:53:55.576Z,15.30
2017-08-12T05:56:22.499Z,15.30
2017-08-12T05:58:49.344Z,15.20
2017-08-12T06:01:16.296Z,15.10
2017-08-12T06:03:43.236Z,15.20
2017-08-12T06:06:10.112Z,15.20
2017-08-12T06:08:37.787Z,15.30
2017-08-12T06:11:04.660Z,15.30
2017-08-12T06:13:31.517Z,15.30
2017-08-12T06:15:58.444Z,15.50
2017-08-12T06:18:25.322Z,15.60
2017-08-12T06:20:52.195Z,15.80
2017-08-12T06:23:19.128Z,16.00
2017-08-12T06:25:45.972Z,16.10
2017-08-12T06:28:12.839Z,16.30
2017-08-12T06:30:39.762Z,16.20
2017-08-12T06:33:06.624Z,16.30
2017-08-12T06:35:33.547Z,16.30
2017-08-12T06:38:00.412Z,16.30
2017-08-12T06:40:28.017Z,16.50
2017-08-12T06:42:55.250Z,16.40
2017-08-12T06:45:22.211Z,16.30
2017-08-12T06:47:52.106Z,16.50
2017-08-12T06:50:21.712Z,16.60
2017-08-12T06:52:53.286Z,16.50
2017-08-12T06:55:20.516Z,16.60
2017-08-12T06:57:49.876Z,16.70
2017-08-12T07:00:17.014Z,16.70
2017-08-12T07:02:54.330Z,16.80
2017-08-12T07:05:27.093Z,16.90
2017-08-12T07:08:00.240Z,16.90
2017-08-12T07:10:30.568Z,16.90
2017-08-12T07:12:57.597Z,17.10
2017-08-12T07:15:27.080Z,17.20
2017-08-12T07:17:55.866Z,17.40
2017-08-12T07:20:26.239Z,17.40
2017-08-12T07:23:00.351Z,17.50
2017-08-12T07:25:28.814Z,17.60
2017-08-12T07:27:55.916Z,17.60
2017-08-12T07:30:26.622Z,17.50
2017-08-12T07:32:53.520Z,17.50
2017-08-12T07:35:29.936Z,17.50
2017-08-12T07:37:59.419Z,17.50
2017-08-12T07:40:35.888Z,17.70
2017-08-12T07:43:02.738Z,17.80
2017-08-12T07:45:34.833Z,17.60
2017-08-12T07:48:01.776Z,17.60
2017-08-12T07:50:35.865Z,17.60
2017-08-12T07:53:14.405Z,17.50
2017-08-12T07:55:44.556Z,17.60
2017-08-12T07:58:20.142Z,18.10
2017-08-12T08:00:53.331Z,18.10
2017-08-12T08:03:21.698Z,18.30
2017-08-12T08:05:48.718Z,18.60
2017-08-12T08:08:16.032Z,18.90
2017-08-12T08:10:43.746Z,19.60
2017-08-12T08:13:10.699Z,19.60
2017-08-12T08:15:37.678Z,20.00
2017-08-12T08:18:05.570Z,20.80
2017-08-12T08:20:33.220Z,20.80
2017-08-12T08:23:02.578Z,20.40
2017-08-12T08:25:30.864Z,20.40
2017-08-12T08:27:59.492Z,20.20
2017-08-12T08:30:27.185Z,19.70
2017-08-12T08:32:54.540Z,19.70
2017-08-12T08:35:21.637Z,19.80
2017-08-12T08:37:48.665Z,20.10
2017-08-12T08:40:16.332Z,20.30
2017-08-12T08:42:43.317Z,21.00
2017-08-12T08:45:11.008Z,21.30
2017-08-12T08:47:45.588Z,21.30
2017-08-12T08:50:13.413Z,21.40
2017-08-12T08:52:40.370Z,21.40
2017-08-12T08:55:07.318Z,21.40
2017-08-12T08:57:34.399Z,21.50
2017-08-12T09:00:03.609Z,21.50
2017-08-12T09:02:31.780Z,21.40
2017-08-12T09:04:58.727Z,21.10
2017-08-12T09:07:26.434Z,21.00
2017-08-12T09:09:53.319Z,21.00
2017-08-12T09:12:32.225Z,20.70
2017-08-12T09:15:10.059Z,20.60
2017-08-12T09:17:49.840Z,20.50
2017-08-12T09:23:09.449Z,20.20
2017-08-12T09:25:40.291Z,20.10
2017-08-12T09:28:19.230Z,20.10
2017-08-12T09:31:02.218Z,20.20
2017-08-12T09:33:44.739Z,20.00
2017-08-12T09:36:25.384Z,20.00
2017-08-12T09:39:07.221Z,20.30
2017-08-12T09:41:48.982Z,20.50
2017-08-12T09:44:31.030Z,20.40
2017-08-12T09:47:04.906Z,20.30
2017-08-12T09:49:45.572Z,20.00
2017-08-12T09:52:25.886Z,20.00
2017-08-12T09:55:06.073Z,19.90
2017-08-12T09:57:46.265Z,19.70
2017-08-12T10:00:26.261Z,19.40
2017-08-12T10:03:08.196Z,19.40
2017-08-12T10:05:48.348Z,19.40
2017-08-12T10:08:29.287Z,19.20
2017-08-12T10:10:59.596Z,19.20
2017-08-12T10:13:27.588Z,19.30
2017-08-12T10:15:57.606Z,19.30
2017-08-12T10:18:35.152Z,19.30
2017-08-12T10:21:02.658Z,19.40
2017-08-12T10:23:42.619Z,19.40
2017-08-12T10:26:23.659Z,19.40
2017-08-12T10:29:05.788Z,19.40
2017-08-12T10:31:46.152Z,19.30
2017-08-12T10:34:27.824Z,19.20
2017-08-12T10:37:01.890Z,19.10
2017-08-12T10:39:34.513Z,18.80
2017-08-12T10:42:09.929Z,18.80
2017-08-12T10:44:36.894Z,18.70
2017-08-12T10:47:12.065Z,18.60
2017-08-12T10:49:41.853Z,18.90
2017-08-12T10:52:08.835Z,18.90
2017-08-12T10:54:35.701Z,19.00
2017-08-12T10:57:18.006Z,19.80
2017-08-12T10:59:51.253Z,19.80
2017-08-12T11:02:18.568Z,20.10
2017-08-12T11:04:58.592Z,20.10
2017-08-12T11:07:39.983Z,20.00
2017-08-12T11:10:20.514Z,20.40
2017-08-12T11:13:01.209Z,20.50
2017-08-12T11:15:34.914Z,20.40
2017-08-12T11:18:06.976Z,20.30
2017-08-12T11:20:38.317Z,20.20
2017-08-12T11:23:15.718Z,20.30
2017-08-12T11:25:47.503Z,20.20
2017-08-12T11:28:14.865Z,20.60
2017-08-12T11:30:44.775Z,20.50
2017-08-12T11:33:13.346Z,20.60
2017-08-12T11:35:41.080Z,20.70
2017-08-12T11:38:08.057Z,20.70
2017-08-12T11:40:43.487Z,20.60
2017-08-12T11:43:14.788Z,20.40
2017-08-12T11:45:45.638Z,20.40
2017-08-12T11:48:17.567Z,20.70
2017-08-12T11:50:50.391Z,20.60
2017-08-12T11:53:20.806Z,21.00
2017-08-12T11:55:55.678Z,21.30
2017-08-12T11:58:26.187Z,21.10
2017-08-12T12:03:21.089Z,21.50
2017-08-12T12:05:48.040Z,21.50
2017-08-12T12:08:14.928Z,21.20
2017-08-12T12:10:41.920Z,21.20
2017-08-12T12:13:08.778Z,20.90
2017-08-12T12:15:35.633Z,20.80
2017-08-12T12:18:02.583Z,20.80
2017-08-12T12:20:29.460Z,20.80
2017-08-12T12:22:57.085Z,20.50
2017-08-12T12:25:24.026Z,20.50
2017-08-12T12:27:50.904Z,20.60
2017-08-12T12:30:17.879Z,20.70
2017-08-12T12:32:44.764Z,20.80
2017-08-12T12:35:11.661Z,20.90
2017-08-12T12:37:39.343Z,20.80
2017-08-12T12:40:06.211Z,20.80
2017-08-12T12:42:33.141Z,20.70
2017-08-12T12:45:00.039Z,20.50
2017-08-12T12:47:27.767Z,20.20
2017-08-12T12:49:54.767Z,20.20
2017-08-12T12:52:21.682Z,20.40
2017-08-12T12:54:48.647Z,20.70
2017-08-12T12:57:15.548Z,20.90
2017-08-12T12:59:42.473Z,20.50
2017-08-12T13:02:09.424Z,20.50
2017-08-12T13:04:36.351Z,20.30
2017-08-12T13:07:03.217Z,20.10
2017-08-12T13:09:30.167Z,19.90
2017-08-12T13:11:57.041Z,19.80
2017-08-12T13:14:23.972Z,19.80
2017-08-12T13:16:50.815Z,19.80
2017-08-12T13:19:17.669Z,19.60
2017-08-12T13:21:44.653Z,19.70
2017-08-12T13:24:12.279Z,19.50
2017-08-12T13:26:39.142Z,19.60
2017-08-12T13:29:06.117Z,19.70
2017-08-12T13:31:33.750Z,19.60
2017-08-12T13:34:00.781Z,19.60
2017-08-12T13:36:27.813Z,19.50
2017-08-12T13:38:54.696Z,19.60
2017-08-12T13:41:21.613Z,19.70
2017-08-12T13:43:48.476Z,19.70
2017-08-12T13:46:15.429Z,19.50
2017-08-12T13:48:42.275Z,19.60
2017-08-12T13:51:09.249Z,19.40
2017-08-12T13:53:36.944Z,18.90
2017-08-12T13:56:03.798Z,18.90
2017-08-12T13:58:30.661Z,19.30
2017-08-12T14:00:57.597Z,19.30
2017-08-12T14:03:24.529Z,19.50
2017-08-12T14:05:51.425Z,19.50
2017-08-12T14:08:19.121Z,19.80
2017-08-12T14:10:46.073Z,19.80
2017-08-12T14:13:12.963Z,20.10
2017-08-12T14:15:39.916Z,20.50
2017-08-12T14:18:06.818Z,20.50
2017-08-12T14:20:33.674Z,20.50
2017-08-12T14:23:00.609Z,20.50
2017-08-12T14:25:27.475Z,20.20
2017-08-12T14:27:54.414Z,20.10
2017-08-12T14:30:21.308Z,19.80
2017-08-12T14:32:48.939Z,19.60
2017-08-12T14:35:15.870Z,19.60
2017-08-12T14:37:42.804Z,19.40
2017-08-12T14:40:09.665Z,19.20
2017-08-12T14:42:36.535Z,19.20
2017-08-12T14:45:03.538Z,19.20
2017-08-12T14:47:30.400Z,19.20
2017-08-12T14:49:57.333Z,19.40
2017-08-12T14:52:24.332Z,19.40
2017-08-12T14:54:52.070Z,19.20
2017-08-12T14:57:18.932Z,19.10
2017-08-12T14:59:46.524Z,19.50
2017-08-12T15:02:13.459Z,19.50
2017-08-12T15:04:41.089Z,19.30
2017-08-12T15:07:07.964Z,19.30
2017-08-12T15:09:35.631Z,19.20
2017-08-12T15:29:22.657Z,18.60
2017-08-12T15:31:49.620Z,18.50
2017-08-12T15:34:16.488Z,18.50
2017-08-12T15:36:43.383Z,18.50
2017-08-12T15:39:10.325Z,18.50
2017-08-12T15:41:37.198Z,18.50
2017-08-12T15:44:04.885Z,18.50
2017-08-12T15:46:31.825Z,18.50
2017-08-12T15:48:58.697Z,18.50
2017-08-12T15:51:25.666Z,18.50
2017-08-12T15:53:52.588Z,18.50
2017-08-12T15:58:50.838Z,18.40
2017-08-12T16:01:18.532Z,18.50
2017-08-12T16:03:45.585Z,18.40
2017-08-12T16:06:12.483Z,18.40
2017-08-12T16:08:40.101Z,18.40
2017-08-12T16:11:07.040Z,18.40
2017-08-12T16:13:33.880Z,18.40
2017-08-12T16:16:00.825Z,18.40
2017-08-12T16:18:27.693Z,18.30
2017-08-12T16:20:54.572Z,18.30
2017-08-12T16:23:22.260Z,18.40
2017-08-12T16:25:49.127Z,18.40
2017-08-12T16:28:16.047Z,18.40
2017-08-12T16:30:42.987Z,18.30
2017-08-12T16:33:09.849Z,18.30
2017-08-12T16:35:36.785Z,18.30
2017-08-12T16:38:03.651Z,18.30
2017-08-12T16:40:30.610Z,18.30
2017-08-12T16:42:57.542Z,18.30
2017-08-12T16:45:24.468Z,18.20
2017-08-12T16:47:51.419Z,18.20
2017-08-12T16:50:18.281Z,18.20
2017-08-12T16:52:45.139Z,18.20
2017-08-12T16:55:12.073Z,18.20
2017-08-12T16:57:38.948Z,18.10
2017-08-12T17:00:05.929Z,18.20
2017-08-12T17:02:33.632Z,18.10
2017-08-12T17:05:00.576Z,18.10
2017-08-12T17:07:27.458Z,18.00
2017-08-12T17:09:54.315Z,18.00
2017-08-12T17:29:42.717Z,17.70
2017-08-12T17:32:09.583Z,17.70
2017-08-12T17:34:36.433Z,17.70
2017-08-12T17:37:03.379Z,17.60
2017-08-12T17:39:30.269Z,17.60
2017-08-12T17:41:57.966Z,17.50
2017-08-12T17:44:24.887Z,17.50
2017-08-12T17:46:51.761Z,17.60
2017-08-12T17:49:18.637Z,17.60
2017-08-12T17:51:45.563Z,17.50
2017-08-12T17:54:12.520Z,17.50
2017-08-12T17:56:39.439Z,17.50
2017-08-12T17:59:06.297Z,17.50
2017-08-12T18:01:33.245Z,17.50
2017-08-12T18:04:00.206Z,17.40
2017-08-12T18:06:28.047Z,17.40
2017-08-12T18:08:54.952Z,17.40
2017-08-12T18:11:22.645Z,17.30
2017-08-12T18:13:49.546Z,17.30
2017-08-12T18:16:16.486Z,17.30
2017-08-12T18:18:43.329Z,17.30
2017-08-12T18:21:10.222Z,17.40
2017-08-12T18:23:37.156Z,17.40
2017-08-12T18:26:04.033Z,17.40
2017-08-12T18:28:30.891Z,17.30
2017-08-12T18:30:57.824Z,17.40
2017-08-12T18:33:24.728Z,17.40
2017-08-12T18:35:52.319Z,17.40
2017-08-12T18:38:19.272Z,17.40
2017-08-12T18:40:46.131Z,17.50
2017-08-12T18:43:13.000Z,17.40
2017-08-12T18:45:39.957Z,17.50
2017-08-12T18:48:06.919Z,17.40
2017-08-12T18:50:34.531Z,17.50
2017-08-12T18:53:01.509Z,17.50
2017-08-12T18:55:28.450Z,17.40
2017-08-12T18:57:55.309Z,17.40
2017-08-12T19:00:22.181Z,17.40
2017-08-12T19:02:49.171Z,17.50
2017-08-12T19:05:16.096Z,17.50
2017-08-12T19:07:43.026Z,17.50
2017-08-12T19:10:10.130Z,17.40
2017-08-12T19:12:37.140Z,17.40
2017-08-12T19:15:07.058Z,17.40
2017-08-12T19:17:35.950Z,17.50
2017-08-12T19:20:05.637Z,17.50
2017-08-12T19:22:32.708Z,17.50
2017-08-12T19:25:02.107Z,17.60
2017-08-12T19:27:29.104Z,17.50
2017-08-12T19:29:56.047Z,17.50
2017-08-12T19:32:24.423Z,17.50
2017-08-12T19:34:53.367Z,17.50
2017-08-12T19:37:20.429Z,17.40
2017-08-12T19:39:49.073Z,17.40
2017-08-12T19:42:16.216Z,17.40
2017-08-12T19:44:45.751Z,17.50
2017-08-12T19:47:12.704Z,17.50
2017-08-12T19:49:41.772Z,17.50
2017-08-12T19:52:10.924Z,17.50
2017-08-12T19:54:40.751Z,17.50
2017-08-12T19:57:07.847Z,17.50
2017-08-12T19:59:36.515Z,17.60
2017-08-12T20:02:06.556Z,17.60
2017-08-12T20:04:33.684Z,17.60
2017-08-12T20:07:01.303Z,17.60
2017-08-12T20:09:31.463Z,17.60
2017-08-12T20:11:58.504Z,17.50
2017-08-12T20:14:25.738Z,17.60
2017-08-12T20:16:52.791Z,17.60
2017-08-12T20:19:19.656Z,17.60
2017-08-12T20:39:08.635Z,17.40
2017-08-12T20:41:35.639Z,17.50
2017-08-12T20:44:03.611Z,17.50
2017-08-12T20:46:32.081Z,17.50
2017-08-12T20:49:01.461Z,17.50
2017-08-12T20:51:30.533Z,17.50
2017-08-12T20:53:57.537Z,17.50
2017-08-12T20:56:24.500Z,17.50
2017-08-12T20:58:52.977Z,17.50
2017-08-12T21:01:20.054Z,17.50
2017-08-12T21:03:46.984Z,17.50
2017-08-12T21:06:14.087Z,17.50
2017-08-12T21:08:41.011Z,17.40
2017-08-12T21:11:07.859Z,17.50
2017-08-12T21:13:35.532Z,17.50
2017-08-12T21:16:03.159Z,17.60
2017-08-12T21:18:30.069Z,17.60
2017-08-12T21:20:57.058Z,17.60
2017-08-12T21:23:23.956Z,17.60
2017-08-12T21:25:52.356Z,17.60
2017-08-12T21:28:19.296Z,17.50
2017-08-12T21:30:48.496Z,17.50
2017-08-12T21:33:15.489Z,17.60
2017-08-12T21:35:43.927Z,17.60
2017-08-12T21:38:12.917Z,17.60
2017-08-12T21:40:39.868Z,17.60
2017-08-12T21:43:09.003Z,17.60
2017-08-12T21:45:36.153Z,17.60
2017-08-12T21:48:04.297Z,17.60
2017-08-12T21:50:32.508Z,17.60
2017-08-12T21:53:01.902Z,17.70
2017-08-12T21:55:29.039Z,17.70
2017-08-12T21:57:56.109Z,17.60
2017-08-12T22:00:24.295Z,17.70
2017-08-12T22:02:53.284Z,17.60
2017-08-12T22:05:24.108Z,17.60
2017-08-12T22:07:51.859Z,17.50
2017-08-12T22:10:18.776Z,17.50
2017-08-12T22:12:48.351Z,17.60
2017-08-12T22:15:18.680Z,17.50
2017-08-12T22:17:48.164Z,17.50
2017-08-12T22:20:19.147Z,17.60
2017-08-12T22:22:46.665Z,17.60
2017-08-12T22:25:14.417Z,17.70
2017-08-12T22:27:45.842Z,17.70
2017-08-12T22:30:13.753Z,17.70
2017-08-12T22:32:40.691Z,17.70
2017-08-12T22:35:07.679Z,17.70
2017-08-12T22:37:34.555Z,17.70
2017-08-12T22:40:01.671Z,17.60
2017-08-12T22:42:30.259Z,17.60
2017-08-12T22:44:57.104Z,17.60
2017-08-12T22:47:25.058Z,17.60
2017-08-12T22:49:52.736Z,17.60
2017-08-12T22:52:19.589Z,17.60
2017-08-12T22:54:49.932Z,17.60
2017-08-12T22:57:19.115Z,17.60
2017-08-12T22:59:46.047Z,17.60
2017-08-12T23:02:15.905Z,17.60
2017-08-12T23:04:47.048Z,17.60
2017-08-12T23:07:16.258Z,17.60
2017-08-12T23:09:45.306Z,17.60
2017-08-12T23:29:34.588Z,17.50
2017-08-12T23:32:02.245Z,17.50
2017-08-12T23:34:29.956Z,17.50
2017-08-12T23:36:56.807Z,17.50
2017-08-12T23:39:23.768Z,17.50
2017-08-12T23:41:50.691Z,17.60
2017-08-12T23:44:17.539Z,17.60
2017-08-12T23:46:44.469Z,17.70
2017-08-12T23:49:11.340Z,17.60
2017-08-12T23:51:38.199Z,17.60
2017-08-12T23:54:05.138Z,17.60
2017-08-12T23:56:31.997Z,17.60
2017-08-12T23:58:58.920Z,17.60
